sensor_id;sensor_type;location;lat;lon;timestamp;pressure;altitude;pressure_sealevel;temperature
70435;BMP280;57876;47.792;12.960;2022-12-01T00:01:10;97210.88;;;17.81
70435;BMP280;57876;47.792;12.960;2022-12-01T00:03:35;97201.22;;;17.80
70435;BMP280;57876;47.792;12.960;2022-12-01T00:06:08;97206.50;;;17.78
70435;BMP280;57876;47.792;12.960;2022-12-01T00:08:33;97200.31;;;17.77
70435;BMP280;57876;47.792;12.960;2022-12-01T00:11:15;97209.09;;;17.76
70435;BMP280;57876;47.792;12.960;2022-12-01T00:13:40;97202.16;;;17.75
70435;BMP280;57876;47.792;12.960;2022-12-01T00:16:11;97202.00;;;17.73
70435;BMP280;57876;47.792;12.960;2022-12-01T00:18:36;97200.56;;;17.72
70435;BMP280;57876;47.792;12.960;2022-12-01T00:21:01;97205.31;;;17.71
70435;BMP280;57876;47.792;12.960;2022-12-01T00:23:25;97203.13;;;17.70
70435;BMP280;57876;47.792;12.960;2022-12-01T00:25:50;97198.94;;;17.69
70435;BMP280;57876;47.792;12.960;2022-12-01T00:28:14;97198.94;;;17.69
70435;BMP280;57876;47.792;12.960;2022-12-01T00:30:38;97183.09;;;17.67
70435;BMP280;57876;47.792;12.960;2022-12-01T00:33:03;97185.06;;;17.67
70435;BMP280;57876;47.792;12.960;2022-12-01T00:35:27;97191.13;;;17.65
70435;BMP280;57876;47.792;12.960;2022-12-01T00:37:53;97189.66;;;17.64
70435;BMP280;57876;47.792;12.960;2022-12-01T00:40:17;97186.91;;;17.64
70435;BMP280;57876;47.792;12.960;2022-12-01T00:42:42;97192.25;;;17.62
70435;BMP280;57876;47.792;12.960;2022-12-01T00:45:06;97190.78;;;17.61
70435;BMP280;57876;47.792;12.960;2022-12-01T00:47:31;97183.84;;;17.60
70435;BMP280;57876;47.792;12.960;2022-12-01T00:49:55;97180.38;;;17.60
70435;BMP280;57876;47.792;12.960;2022-12-01T00:52:20;97188.44;;;17.58
70435;BMP280;57876;47.792;12.960;2022-12-01T00:54:45;97184.25;;;17.57
70435;BMP280;57876;47.792;12.960;2022-12-01T00:57:11;97181.50;;;17.57
70435;BMP280;57876;47.792;12.960;2022-12-01T00:59:36;97182.78;;;17.56
70435;BMP280;57876;47.792;12.960;2022-12-01T01:02:01;97194.28;;;17.54
70435;BMP280;57876;47.792;12.960;2022-12-01T01:04:29;97190.09;;;17.53
70435;BMP280;57876;47.792;12.960;2022-12-01T01:06:53;97183.91;;;17.53
70435;BMP280;57876;47.792;12.960;2022-12-01T01:09:17;97193.38;;;17.52
70435;BMP280;57876;47.792;12.960;2022-12-01T01:11:42;97187.91;;;17.52
70435;BMP280;57876;47.792;12.960;2022-12-01T01:14:06;97187.72;;;17.50
70435;BMP280;57876;47.792;12.960;2022-12-01T01:16:32;97193.19;;;17.50
70435;BMP280;57876;47.792;12.960;2022-12-01T01:18:56;97191.78;;;17.49
70435;BMP280;57876;47.792;12.960;2022-12-01T01:21:21;97186.88;;;17.47
70435;BMP280;57876;47.792;12.960;2022-12-01T01:23:50;97186.88;;;17.47
70435;BMP280;57876;47.792;12.960;2022-12-01T01:26:17;97184.66;;;17.46
70435;BMP280;57876;47.792;12.960;2022-12-01T01:28:42;97185.19;;;17.44
70435;BMP280;57876;47.792;12.960;2022-12-01T01:31:08;97187.94;;;17.44
70435;BMP280;57876;47.792;12.960;2022-12-01T01:33:34;97177.00;;;17.44
70435;BMP280;57876;47.792;12.960;2022-12-01T01:35:59;97185.78;;;17.43
70435;BMP280;57876;47.792;12.960;2022-12-01T01:38:23;97182.31;;;17.42
70435;BMP280;57876;47.792;12.960;2022-12-01T01:40:48;97186.34;;;17.41
70435;BMP280;57876;47.792;12.960;2022-12-01T01:43:15;97187.59;;;17.40
70435;BMP280;57876;47.792;12.960;2022-12-01T01:45:40;97191.09;;;17.41
70435;BMP280;57876;47.792;12.960;2022-12-01T01:48:04;97190.94;;;17.39
70435;BMP280;57876;47.792;12.960;2022-12-01T01:50:29;97187.47;;;17.38
70435;BMP280;57876;47.792;12.960;2022-12-01T01:53:00;97181.25;;;17.38
70435;BMP280;57876;47.792;12.960;2022-12-01T01:55:27;97186.72;;;17.38
70435;BMP280;57876;47.792;12.960;2022-12-01T01:57:52;97184.53;;;17.36
70435;BMP280;57876;47.792;12.960;2022-12-01T02:00:19;97188.56;;;17.35
70435;BMP280;57876;47.792;12.960;2022-12-01T02:02:45;97184.53;;;17.36
70435;BMP280;57876;47.792;12.960;2022-12-01T02:05:21;97174.16;;;17.35
70435;BMP280;57876;47.792;12.960;2022-12-01T02:07:47;97174.75;;;17.33
70435;BMP280;57876;47.792;12.960;2022-12-01T02:10:12;97177.47;;;17.33
70435;BMP280;57876;47.792;12.960;2022-12-01T02:15:49;97167.81;;;17.32
70435;BMP280;57876;47.792;12.960;2022-12-01T02:18:24;97166.34;;;17.31
70435;BMP280;57876;47.792;12.960;2022-12-01T02:31:29;97168.72;;;17.27
70435;BMP280;57876;47.792;12.960;2022-12-01T02:34:20;97163.25;;;17.27
70435;BMP280;57876;47.792;12.960;2022-12-01T02:36:51;97161.97;;;17.28
70435;BMP280;57876;47.792;12.960;2022-12-01T02:42:19;97160.00;;;17.29
70435;BMP280;57876;47.792;12.960;2022-12-01T02:45:09;97163.44;;;17.29
70435;BMP280;57876;47.792;12.960;2022-12-01T02:47:35;97156.66;;;17.30
70435;BMP280;57876;47.792;12.960;2022-12-01T02:50:02;97159.59;;;17.32
70435;BMP280;57876;47.792;12.960;2022-12-01T02:52:27;97147.94;;;17.32
70435;BMP280;57876;47.792;12.960;2022-12-01T02:54:52;97153.41;;;17.32
70435;BMP280;57876;47.792;12.960;2022-12-01T02:57:22;97150.66;;;17.32
70435;BMP280;57876;47.792;12.960;2022-12-01T02:59:49;97150.13;;;17.33
70435;BMP280;57876;47.792;12.960;2022-12-01T03:10:20;97140.22;;;17.38
70435;BMP280;57876;47.792;12.960;2022-12-01T03:15:24;97148.00;;;17.49
70435;BMP280;57876;47.792;12.960;2022-12-01T03:18:10;97138.13;;;17.53
70435;BMP280;57876;47.792;12.960;2022-12-01T03:20:50;97143.94;;;17.57
70435;BMP280;57876;47.792;12.960;2022-12-01T03:23:21;97131.69;;;17.58
70435;BMP280;57876;47.792;12.960;2022-12-01T03:25:48;97135.31;;;17.61
70435;BMP280;57876;47.792;12.960;2022-12-01T03:28:17;97136.78;;;17.62
70435;BMP280;57876;47.792;12.960;2022-12-01T03:30:44;97138.25;;;17.63
70435;BMP280;57876;47.792;12.960;2022-12-01T03:33:24;97148.47;;;17.62
70435;BMP280;57876;47.792;12.960;2022-12-01T03:36:18;97137.53;;;17.62
70435;BMP280;57876;47.792;12.960;2022-12-01T03:38:48;97139.53;;;17.62
70435;BMP280;57876;47.792;12.960;2022-12-01T03:41:18;97145.00;;;17.62
70435;BMP280;57876;47.792;12.960;2022-12-01T03:43:50;97138.06;;;17.61
70435;BMP280;57876;47.792;12.960;2022-12-01T03:46:22;97143.53;;;17.61
70435;BMP280;57876;47.792;12.960;2022-12-01T03:48:49;97137.31;;;17.60
70435;BMP280;57876;47.792;12.960;2022-12-01T03:53:56;97142.78;;;17.60
70435;BMP280;57876;47.792;12.960;2022-12-01T03:56:28;97144.06;;;17.59
70435;BMP280;57876;47.792;12.960;2022-12-01T03:58:55;97146.09;;;17.59
70435;BMP280;57876;47.792;12.960;2022-12-01T04:01:21;97145.38;;;17.58
70435;BMP280;57876;47.792;12.960;2022-12-01T04:03:45;97145.94;;;17.57
70435;BMP280;57876;47.792;12.960;2022-12-01T04:06:10;97141.19;;;17.57
70435;BMP280;57876;47.792;12.960;2022-12-01T04:08:35;97143.94;;;17.57
70435;BMP280;57876;47.792;12.960;2022-12-01T04:11:00;97148.84;;;17.59
70435;BMP280;57876;47.792;12.960;2022-12-01T04:13:44;97153.53;;;17.66
70435;BMP280;57876;47.792;12.960;2022-12-01T04:16:09;97144.91;;;17.69
70435;BMP280;57876;47.792;12.960;2022-12-01T04:18:33;97143.09;;;17.72
70435;BMP280;57876;47.792;12.960;2022-12-01T04:20:57;97147.25;;;17.73
70435;BMP280;57876;47.792;12.960;2022-12-01T04:23:22;97156.38;;;17.75
70435;BMP280;57876;47.792;12.960;2022-12-01T04:26:05;97154.38;;;17.76
70435;BMP280;57876;47.792;12.960;2022-12-01T04:28:29;97159.84;;;17.76
70435;BMP280;57876;47.792;12.960;2022-12-01T04:30:54;97164.56;;;17.75
70435;BMP280;57876;47.792;12.960;2022-12-01T04:33:18;97157.09;;;17.76
70435;BMP280;57876;47.792;12.960;2022-12-01T04:35:43;97161.13;;;17.75
70435;BMP280;57876;47.792;12.960;2022-12-01T04:38:07;97161.84;;;17.75
70435;BMP280;57876;47.792;12.960;2022-12-01T04:40:31;97158.38;;;17.75
70435;BMP280;57876;47.792;12.960;2022-12-01T04:42:56;97155.47;;;17.73
70435;BMP280;57876;47.792;12.960;2022-12-01T04:45:20;97162.25;;;17.72
70435;BMP280;57876;47.792;12.960;2022-12-01T04:47:44;97161.50;;;17.71
70435;BMP280;57876;47.792;12.960;2022-12-01T04:50:09;97155.31;;;17.71
70435;BMP280;57876;47.792;12.960;2022-12-01T04:52:36;97155.16;;;17.69
70435;BMP280;57876;47.792;12.960;2022-12-01T04:55:00;97166.09;;;17.69
70435;BMP280;57876;47.792;12.960;2022-12-01T04:57:25;97155.16;;;17.69
70435;BMP280;57876;47.792;12.960;2022-12-01T04:59:49;97156.44;;;17.68
70435;BMP280;57876;47.792;12.960;2022-12-01T05:02:13;97154.97;;;17.67
70435;BMP280;57876;47.792;12.960;2022-12-01T05:04:38;97165.22;;;17.66
70435;BMP280;57876;47.792;12.960;2022-12-01T05:07:04;97163.00;;;17.65
70435;BMP280;57876;47.792;12.960;2022-12-01T05:09:29;97160.28;;;17.65
70435;BMP280;57876;47.792;12.960;2022-12-01T05:11:53;97163.19;;;17.67
70435;BMP280;57876;47.792;12.960;2022-12-01T05:14:17;97169.72;;;17.71
70435;BMP280;57876;47.792;12.960;2022-12-01T05:16:42;97168.59;;;17.74
70435;BMP280;57876;47.792;12.960;2022-12-01T05:19:06;97162.00;;;17.77
70435;BMP280;57876;47.792;12.960;2022-12-01T05:21:49;97158.16;;;17.80
70435;BMP280;57876;47.792;12.960;2022-12-01T05:24:14;97158.88;;;17.81
70435;BMP280;57876;47.792;12.960;2022-12-01T05:26:40;97168.56;;;17.82
70435;BMP280;57876;47.792;12.960;2022-12-01T05:29:05;97165.09;;;17.81
70435;BMP280;57876;47.792;12.960;2022-12-01T05:31:30;97174.03;;;17.82
70435;BMP280;57876;47.792;12.960;2022-12-01T05:33:54;97166.53;;;17.82
70435;BMP280;57876;47.792;12.960;2022-12-01T05:36:19;97157.59;;;17.82
70435;BMP280;57876;47.792;12.960;2022-12-01T05:38:43;97153.91;;;17.87
70435;BMP280;57876;47.792;12.960;2022-12-01T05:41:08;97157.31;;;17.94
70435;BMP280;57876;47.792;12.960;2022-12-01T05:43:33;97160.88;;;18.04
70435;BMP280;57876;47.792;12.960;2022-12-01T05:45:57;97164.41;;;18.14
70435;BMP280;57876;47.792;12.960;2022-12-01T05:48:22;97170.56;;;18.22
70435;BMP280;57876;47.792;12.960;2022-12-01T05:50:46;97174.81;;;18.33
70435;BMP280;57876;47.792;12.960;2022-12-01T05:53:12;97177.50;;;18.40
70435;BMP280;57876;47.792;12.960;2022-12-01T05:55:36;97177.97;;;18.46
70435;BMP280;57876;47.792;12.960;2022-12-01T05:58:01;97173.72;;;18.53
70435;BMP280;57876;47.792;12.960;2022-12-01T06:00:26;97177.81;;;18.61
70435;BMP280;57876;47.792;12.960;2022-12-01T06:02:50;97177.59;;;18.67
70435;BMP280;57876;47.792;12.960;2022-12-01T06:05:15;97177.31;;;18.72
70435;BMP280;57876;47.792;12.960;2022-12-01T06:07:39;97178.19;;;18.74
70435;BMP280;57876;47.792;12.960;2022-12-01T06:10:05;97185.44;;;18.79
70435;BMP280;57876;47.792;12.960;2022-12-01T06:12:29;97181.41;;;18.80
70435;BMP280;57876;47.792;12.960;2022-12-01T06:14:54;97168.44;;;18.81
70435;BMP280;57876;47.792;12.960;2022-12-01T06:17:18;97173.94;;;18.81
70435;BMP280;57876;47.792;12.960;2022-12-01T06:19:42;97170.28;;;18.78
70435;BMP280;57876;47.792;12.960;2022-12-01T06:22:07;97177.78;;;18.78
70435;BMP280;57876;47.792;12.960;2022-12-01T06:24:31;97172.72;;;18.74
70435;BMP280;57876;47.792;12.960;2022-12-01T06:26:55;97179.34;;;18.71
70435;BMP280;57876;47.792;12.960;2022-12-01T06:29:20;97179.19;;;18.69
70435;BMP280;57876;47.792;12.960;2022-12-01T06:31:44;97184.53;;;18.67
70435;BMP280;57876;47.792;12.960;2022-12-01T06:34:09;97184.19;;;18.64
70435;BMP280;57876;47.792;12.960;2022-12-01T06:36:33;97186.75;;;18.62
70435;BMP280;57876;47.792;12.960;2022-12-01T06:38:58;97181.69;;;18.58
70435;BMP280;57876;47.792;12.960;2022-12-01T06:41:22;97197.94;;;18.56
70435;BMP280;57876;47.792;12.960;2022-12-01T06:43:46;97196.34;;;18.53
70435;BMP280;57876;47.792;12.960;2022-12-01T06:46:11;97198.91;;;18.51
70435;BMP280;57876;47.792;12.960;2022-12-01T06:48:35;97199.31;;;18.48
70435;BMP280;57876;47.792;12.960;2022-12-01T06:51:00;97200.59;;;18.47
70435;BMP280;57876;47.792;12.960;2022-12-01T06:53:25;97205.22;;;18.44
70435;BMP280;57876;47.792;12.960;2022-12-01T06:55:53;97200.88;;;18.41
70435;BMP280;57876;47.792;12.960;2022-12-01T06:58:18;97208.38;;;18.41
70435;BMP280;57876;47.792;12.960;2022-12-01T07:00:42;97210.19;;;18.38
70435;BMP280;57876;47.792;12.960;2022-12-01T07:03:07;97219.56;;;18.35
70435;BMP280;57876;47.792;12.960;2022-12-01T07:05:31;97212.63;;;18.34
70435;BMP280;57876;47.792;12.960;2022-12-01T07:07:55;97211.16;;;18.33
70435;BMP280;57876;47.792;12.960;2022-12-01T07:10:23;97220.53;;;18.30
70435;BMP280;57876;47.792;12.960;2022-12-01T07:12:48;97219.06;;;18.29
70435;BMP280;57876;47.792;12.960;2022-12-01T07:15:12;97213.41;;;18.27
70435;BMP280;57876;47.792;12.960;2022-12-01T07:17:36;97215.97;;;18.25
70435;BMP280;57876;47.792;12.960;2022-12-01T07:20:01;97215.25;;;18.25
70435;BMP280;57876;47.792;12.960;2022-12-01T07:22:27;97219.16;;;18.22
70435;BMP280;57876;47.792;12.960;2022-12-01T07:24:51;97224.63;;;18.22
70435;BMP280;57876;47.792;12.960;2022-12-01T07:27:16;97219.69;;;18.20
70435;BMP280;57876;47.792;12.960;2022-12-01T07:29:40;97222.97;;;18.19
70435;BMP280;57876;47.792;12.960;2022-12-01T07:32:05;97231.78;;;18.17
70435;BMP280;57876;47.792;12.960;2022-12-01T07:34:29;97231.59;;;18.15
70435;BMP280;57876;47.792;12.960;2022-12-01T07:36:53;97226.69;;;18.14
70435;BMP280;57876;47.792;12.960;2022-12-01T07:39:18;97230.72;;;18.13
70435;BMP280;57876;47.792;12.960;2022-12-01T07:41:42;97236.00;;;18.11
70435;BMP280;57876;47.792;12.960;2022-12-01T07:44:09;97229.09;;;18.10
70435;BMP280;57876;47.792;12.960;2022-12-01T07:46:33;97237.88;;;18.08
70435;BMP280;57876;47.792;12.960;2022-12-01T07:48:58;97235.69;;;18.07
70435;BMP280;57876;47.792;12.960;2022-12-01T07:51:24;97228.72;;;18.06
70435;BMP280;57876;47.792;12.960;2022-12-01T07:53:49;97238.25;;;18.05
70435;BMP280;57876;47.792;12.960;2022-12-01T07:56:15;97242.28;;;18.04
70435;BMP280;57876;47.792;12.960;2022-12-01T07:58:40;97239.53;;;18.04
70435;BMP280;57876;47.792;12.960;2022-12-01T08:01:09;97232.59;;;18.03
70435;BMP280;57876;47.792;12.960;2022-12-01T08:03:35;97243.56;;;18.03
70435;BMP280;57876;47.792;12.960;2022-12-01T08:06:00;97240.81;;;18.03
70435;BMP280;57876;47.792;12.960;2022-12-01T08:08:26;97234.06;;;18.04
70435;BMP280;57876;47.792;12.960;2022-12-01T08:10:51;97234.81;;;18.04
70435;BMP280;57876;47.792;12.960;2022-12-01T08:13:16;97237.53;;;18.04
70435;BMP280;57876;47.792;12.960;2022-12-01T08:15:40;97230.03;;;18.05
70435;BMP280;57876;47.792;12.960;2022-12-01T08:18:05;97236.94;;;18.06
70435;BMP280;57876;47.792;12.960;2022-12-01T08:20:29;97235.69;;;18.07
70435;BMP280;57876;47.792;12.960;2022-12-01T08:22:53;97233.69;;;18.07
70435;BMP280;57876;47.792;12.960;2022-12-01T08:25:18;97239.31;;;18.09
70435;BMP280;57876;47.792;12.960;2022-12-01T08:27:42;97240.75;;;18.10
70435;BMP280;57876;47.792;12.960;2022-12-01T08:30:07;97244.22;;;18.11
70435;BMP280;57876;47.792;12.960;2022-12-01T08:32:32;97232.00;;;18.12
70435;BMP280;57876;47.792;12.960;2022-12-01T08:34:56;97234.91;;;18.14
70435;BMP280;57876;47.792;12.960;2022-12-01T08:37:20;97234.91;;;18.14
70435;BMP280;57876;47.792;12.960;2022-12-01T08:39:45;97237.09;;;18.15
70435;BMP280;57876;47.792;12.960;2022-12-01T08:42:09;97236.50;;;18.17
70435;BMP280;57876;47.792;12.960;2022-12-01T08:44:33;97236.50;;;18.17
70435;BMP280;57876;47.792;12.960;2022-12-01T08:46:58;97234.66;;;18.19
70435;BMP280;57876;47.792;12.960;2022-12-01T08:49:22;97235.38;;;18.20
70435;BMP280;57876;47.792;12.960;2022-12-01T08:51:47;97239.56;;;18.21
70435;BMP280;57876;47.792;12.960;2022-12-01T08:54:11;97238.31;;;18.22
70435;BMP280;57876;47.792;12.960;2022-12-01T08:56:40;97245.25;;;18.23
70435;BMP280;57876;47.792;12.960;2022-12-01T08:59:05;97243.94;;;18.24
70435;BMP280;57876;47.792;12.960;2022-12-01T09:01:30;97247.41;;;18.24
70435;BMP280;57876;47.792;12.960;2022-12-01T09:03:56;97237.19;;;18.25
70435;BMP280;57876;47.792;12.960;2022-12-01T09:06:39;97249.59;;;18.26
70435;BMP280;57876;47.792;12.960;2022-12-01T09:09:04;97245.56;;;18.27
70435;BMP280;57876;47.792;12.960;2022-12-01T09:11:29;97240.81;;;18.27
70435;BMP280;57876;47.792;12.960;2022-12-01T09:13:53;97250.44;;;18.28
70435;BMP280;57876;47.792;12.960;2022-12-01T09:16:17;97245.72;;;18.29
70435;BMP280;57876;47.792;12.960;2022-12-01T09:18:43;97242.22;;;18.28
70435;BMP280;57876;47.792;12.960;2022-12-01T09:21:10;97238.97;;;18.30
70435;BMP280;57876;47.792;12.960;2022-12-01T09:23:35;97247.91;;;18.30
70435;BMP280;57876;47.792;12.960;2022-12-01T09:25:59;97245.19;;;18.30
70435;BMP280;57876;47.792;12.960;2022-12-01T09:28:24;97249.38;;;18.31
70435;BMP280;57876;47.792;12.960;2022-12-01T09:30:48;97251.38;;;18.31
70435;BMP280;57876;47.792;12.960;2022-12-01T09:33:12;97247.91;;;18.30
70435;BMP280;57876;47.792;12.960;2022-12-01T09:35:37;97241.88;;;18.32
70435;BMP280;57876;47.792;12.960;2022-12-01T09:38:02;97250.09;;;18.32
70435;BMP280;57876;47.792;12.960;2022-12-01T09:40:31;97248.78;;;18.33
70435;BMP280;57876;47.792;12.960;2022-12-01T09:43:00;97248.09;;;18.32
70435;BMP280;57876;47.792;12.960;2022-12-01T09:45:29;97237.13;;;18.32
70435;BMP280;57876;47.792;12.960;2022-12-01T09:47:56;97240.56;;;18.33
70435;BMP280;57876;47.792;12.960;2022-12-01T09:50:24;97230.91;;;18.32
70435;BMP280;57876;47.792;12.960;2022-12-01T09:52:56;97235.06;;;18.33
70435;BMP280;57876;47.792;12.960;2022-12-01T09:55:22;97228.31;;;18.34
70435;BMP280;57876;47.792;12.960;2022-12-01T09:57:52;97226.31;;;18.34
70435;BMP280;57876;47.792;12.960;2022-12-01T10:00:20;97222.84;;;18.34
70435;BMP280;57876;47.792;12.960;2022-12-01T10:05:44;97215.34;;;18.34
70435;BMP280;57876;47.792;12.960;2022-12-01T10:08:14;97216.06;;;18.35
70435;BMP280;57876;47.792;12.960;2022-12-01T10:10:43;97223.00;;;18.36
70435;BMP280;57876;47.792;12.960;2022-12-01T10:13:22;97206.56;;;18.36
70435;BMP280;57876;47.792;12.960;2022-12-01T10:20:58;97207.84;;;18.35
70435;BMP280;57876;47.792;12.960;2022-12-01T10:26:20;97194.72;;;18.33
70435;BMP280;57876;47.792;12.960;2022-12-01T10:29:12;97204.56;;;18.36
70435;BMP280;57876;47.792;12.960;2022-12-01T10:31:48;97196.81;;;18.42
70435;BMP280;57876;47.792;12.960;2022-12-01T10:34:26;97195.00;;;18.45
70435;BMP280;57876;47.792;12.960;2022-12-01T10:36:52;97198.19;;;18.51
70435;BMP280;57876;47.792;12.960;2022-12-01T10:39:21;97202.56;;;18.54
70435;BMP280;57876;47.792;12.960;2022-12-01T10:41:48;97197.25;;;18.56
70435;BMP280;57876;47.792;12.960;2022-12-01T10:44:13;97196.34;;;18.53
70435;BMP280;57876;47.792;12.960;2022-12-01T10:46:46;97188.94;;;18.46
70435;BMP280;57876;47.792;12.960;2022-12-01T10:49:16;97195.72;;;18.45
70435;BMP280;57876;47.792;12.960;2022-12-01T10:51:53;97199.22;;;18.55
70435;BMP280;57876;47.792;12.960;2022-12-01T10:54:19;97188.56;;;18.67
70435;BMP280;57876;47.792;12.960;2022-12-01T10:56:46;97184.00;;;18.78
70435;BMP280;57876;47.792;12.960;2022-12-01T11:01:53;97178.66;;;18.97
70435;BMP280;57876;47.792;12.960;2022-12-01T11:06:53;97177.47;;;19.17
70435;BMP280;57876;47.792;12.960;2022-12-01T11:09:19;97179.81;;;19.21
70435;BMP280;57876;47.792;12.960;2022-12-01T11:11:44;97175.31;;;19.25
70435;BMP280;57876;47.792;12.960;2022-12-01T11:14:46;97175.69;;;19.29
70435;BMP280;57876;47.792;12.960;2022-12-01T11:17:15;97170.50;;;19.33
70435;BMP280;57876;47.792;12.960;2022-12-01T11:19:40;97165.00;;;19.33
70435;BMP280;57876;47.792;12.960;2022-12-01T11:22:23;97158.97;;;19.18
70435;BMP280;57876;47.792;12.960;2022-12-01T11:27:18;97164.38;;;18.99
70435;BMP280;57876;47.792;12.960;2022-12-01T11:29:45;97150.75;;;18.91
70435;BMP280;57876;47.792;12.960;2022-12-01T11:32:23;97156.50;;;18.86
70435;BMP280;57876;47.792;12.960;2022-12-01T11:34:56;97150.56;;;18.80
70435;BMP280;57876;47.792;12.960;2022-12-01T11:37:43;97156.44;;;18.76
70435;BMP280;57876;47.792;12.960;2022-12-01T11:40:29;97158.31;;;18.74
70435;BMP280;57876;47.792;12.960;2022-12-01T11:43:03;97156.69;;;18.71
70435;BMP280;57876;47.792;12.960;2022-12-01T11:45:31;97151.03;;;18.69
70435;BMP280;57876;47.792;12.960;2022-12-01T11:47:58;97159.84;;;18.67
70435;BMP280;57876;47.792;12.960;2022-12-01T11:50:26;97154.19;;;18.65
70435;BMP280;57876;47.792;12.960;2022-12-01T11:52:50;97153.47;;;18.65
70435;BMP280;57876;47.792;12.960;2022-12-01T11:57:42;97150.59;;;18.63
70435;BMP280;57876;47.792;12.960;2022-12-01T12:00:22;97156.59;;;18.62
70435;BMP280;57876;47.792;12.960;2022-12-01T12:11:27;97146.63;;;18.57
70435;BMP280;57876;47.792;12.960;2022-12-01T12:30:23;97136.47;;;18.50
70435;BMP280;57876;47.792;12.960;2022-12-01T12:35:58;97135.44;;;18.45
70435;BMP280;57876;47.792;12.960;2022-12-01T12:41:35;97144.03;;;18.42
70435;BMP280;57876;47.792;12.960;2022-12-01T12:49:41;97130.22;;;18.40
70435;BMP280;57876;47.792;12.960;2022-12-01T12:52:55;97132.94;;;18.40
70435;BMP280;57876;47.792;12.960;2022-12-01T12:57:36;97121.81;;;18.38
70435;BMP280;57876;47.792;12.960;2022-12-01T13:00:06;97125.28;;;18.38
70435;BMP280;57876;47.792;12.960;2022-12-01T13:07:55;97118.91;;;18.36
70435;BMP280;57876;47.792;12.960;2022-12-01T13:10:35;97127.88;;;18.36
70435;BMP280;57876;47.792;12.960;2022-12-01T13:13:16;97117.47;;;18.35
70435;BMP280;57876;47.792;12.960;2022-12-01T13:15:42;97118.91;;;18.36
70435;BMP280;57876;47.792;12.960;2022-12-01T13:18:32;97118.19;;;18.35
70435;BMP280;57876;47.792;12.960;2022-12-01T13:21:02;97118.91;;;18.36
70435;BMP280;57876;47.792;12.960;2022-12-01T13:23:27;97123.69;;;18.35
70435;BMP280;57876;47.792;12.960;2022-12-01T13:25:54;97118.19;;;18.35
70435;BMP280;57876;47.792;12.960;2022-12-01T13:28:26;97121.66;;;18.36
70435;BMP280;57876;47.792;12.960;2022-12-01T13:31:03;97118.19;;;18.35
70435;BMP280;57876;47.792;12.960;2022-12-01T13:33:29;97122.41;;;18.36
70435;BMP280;57876;47.792;12.960;2022-12-01T13:35:54;97112.72;;;18.35
70435;BMP280;57876;47.792;12.960;2022-12-01T13:38:23;97114.72;;;18.35
70435;BMP280;57876;47.792;12.960;2022-12-01T13:40:49;97118.19;;;18.35
70435;BMP280;57876;47.792;12.960;2022-12-01T13:43:32;97120.94;;;18.35
70435;BMP280;57876;47.792;12.960;2022-12-01T13:46:01;97115.47;;;18.35
70435;BMP280;57876;47.792;12.960;2022-12-01T13:48:49;97125.69;;;18.35
70435;BMP280;57876;47.792;12.960;2022-12-01T13:51:15;97121.66;;;18.36
70435;BMP280;57876;47.792;12.960;2022-12-01T13:54:25;97120.19;;;18.35
70435;BMP280;57876;47.792;12.960;2022-12-01T13:57:01;97118.91;;;18.36
70435;BMP280;57876;47.792;12.960;2022-12-01T14:02:21;97125.69;;;18.35
70435;BMP280;57876;47.792;12.960;2022-12-01T14:04:48;97120.19;;;18.35
70435;BMP280;57876;47.792;12.960;2022-12-01T14:07:22;97116.75;;;18.34
70435;BMP280;57876;47.792;12.960;2022-12-01T14:09:52;97122.75;;;18.33
70435;BMP280;57876;47.792;12.960;2022-12-01T14:12:26;97124.97;;;18.34
70435;BMP280;57876;47.792;12.960;2022-12-01T14:14:59;97125.50;;;18.33
70435;BMP280;57876;47.792;12.960;2022-12-01T14:17:30;97133.19;;;18.34
70435;BMP280;57876;47.792;12.960;2022-12-01T14:20:06;97133.72;;;18.33
70435;BMP280;57876;47.792;12.960;2022-12-01T14:22:43;97128.97;;;18.33
70435;BMP280;57876;47.792;12.960;2022-12-01T14:27:42;97124.81;;;18.32
70435;BMP280;57876;47.792;12.960;2022-12-01T14:36:00;97138.50;;;18.32
70435;BMP280;57876;47.792;12.960;2022-12-01T14:38:26;97131.59;;;18.31
70435;BMP280;57876;47.792;12.960;2022-12-01T14:40:51;97131.59;;;18.31
70435;BMP280;57876;47.792;12.960;2022-12-01T14:43:16;97132.31;;;18.32
70435;BMP280;57876;47.792;12.960;2022-12-01T14:46:05;97136.47;;;18.33
70435;BMP280;57876;47.792;12.960;2022-12-01T14:48:40;97137.78;;;18.32
70435;BMP280;57876;47.792;12.960;2022-12-01T14:51:26;97135.03;;;18.32
70435;BMP280;57876;47.792;12.960;2022-12-01T14:53:51;97132.88;;;18.30
70435;BMP280;57876;47.792;12.960;2022-12-01T14:56:19;97137.06;;;18.31
70435;BMP280;57876;47.792;12.960;2022-12-01T14:59:00;97137.06;;;18.31
70435;BMP280;57876;47.792;12.960;2022-12-01T15:01:32;97146.00;;;18.32
70435;BMP280;57876;47.792;12.960;2022-12-01T15:03:58;97139.81;;;18.31
70435;BMP280;57876;47.792;12.960;2022-12-01T15:06:25;97136.31;;;18.31
70435;BMP280;57876;47.792;12.960;2022-12-01T15:11:33;97153.91;;;18.28
70435;BMP280;57876;47.792;12.960;2022-12-01T15:13:59;97140.75;;;18.26
70435;BMP280;57876;47.792;12.960;2022-12-01T15:16:26;97142.03;;;18.25
70435;BMP280;57876;47.792;12.960;2022-12-01T15:18:51;97138.59;;;18.25
70435;BMP280;57876;47.792;12.960;2022-12-01T15:24:24;97155.00;;;18.25
70435;BMP280;57876;47.792;12.960;2022-12-01T15:26:53;97159.03;;;18.24
70435;BMP280;57876;47.792;12.960;2022-12-01T15:31:54;97148.78;;;18.24
70435;BMP280;57876;47.792;12.960;2022-12-01T15:34:21;97160.50;;;18.25
70435;BMP280;57876;47.792;12.960;2022-12-01T15:36:46;97159.22;;;18.26
70435;BMP280;57876;47.792;12.960;2022-12-01T15:39:14;97158.63;;;18.27
70435;BMP280;57876;47.792;12.960;2022-12-01T15:41:41;97153.41;;;18.39
70435;BMP280;57876;47.792;12.960;2022-12-01T15:44:18;97157.28;;;18.53
70435;BMP280;57876;47.792;12.960;2022-12-01T15:46:42;97161.63;;;18.72
70435;BMP280;57876;47.792;12.960;2022-12-01T15:49:15;97163.16;;;18.92
70435;BMP280;57876;47.792;12.960;2022-12-01T15:51:40;97160.97;;;19.08
70435;BMP280;57876;47.792;12.960;2022-12-01T15:54:04;97156.56;;;19.22
70435;BMP280;57876;47.792;12.960;2022-12-01T15:56:33;97158.19;;;19.34